createdAt,value
2022-09-26T00:01:45.367Z,20.50
2022-09-26T00:04:33.060Z,20.50
2022-09-26T00:07:20.174Z,20.50
2022-09-26T00:10:08.899Z,20.50
2022-09-26T00:12:56.830Z,20.40
2022-09-26T00:15:48.351Z,20.40
2022-09-26T00:18:36.219Z,20.40
2022-09-26T00:21:24.647Z,20.40
2022-09-26T00:24:12.081Z,20.40
2022-09-26T00:26:59.438Z,20.40
2022-09-26T00:29:46.911Z,20.40
2022-09-26T00:32:35.245Z,20.40
2022-09-26T00:35:22.580Z,20.40
2022-09-26T00:38:09.729Z,20.40
2022-09-26T00:40:56.808Z,20.30
2022-09-26T00:43:46.558Z,20.40
2022-09-26T00:46:37.636Z,20.30
2022-09-26T00:49:30.290Z,20.30
2022-09-26T00:52:24.375Z,20.30
2022-09-26T00:55:15.167Z,20.30
2022-09-26T00:58:08.276Z,20.30
2022-09-26T01:00:56.965Z,20.30
2022-09-26T01:03:45.813Z,20.30
2022-09-26T01:06:34.443Z,20.20
2022-09-26T01:09:22.341Z,20.20
2022-09-26T01:12:10.272Z,20.20
2022-09-26T01:14:59.510Z,20.20
2022-09-26T01:17:47.607Z,20.20
2022-09-26T01:20:49.133Z,20.20
2022-09-26T01:24:16.029Z,20.20
2022-09-26T01:27:42.148Z,20.20
2022-09-26T01:30:37.446Z,20.20
2022-09-26T01:33:42.492Z,20.20
2022-09-26T01:36:58.717Z,20.20
2022-09-26T01:39:55.973Z,20.20
2022-09-26T01:42:58.841Z,20.20
2022-09-26T01:45:55.033Z,20.10
2022-09-26T01:48:48.564Z,20.10
2022-09-26T01:51:46.326Z,20.00
2022-09-26T01:54:38.964Z,20.00
2022-09-26T01:57:38.773Z,20.00
2022-09-26T02:00:26.553Z,20.00
2022-09-26T02:03:23.034Z,20.00
2022-09-26T02:06:15.865Z,20.00
2022-09-26T02:09:10.315Z,19.90
2022-09-26T02:12:05.402Z,20.00
2022-09-26T02:14:55.719Z,19.90
2022-09-26T02:17:47.382Z,19.90
2022-09-26T02:20:39.132Z,19.90
2022-09-26T02:23:26.421Z,19.90
2022-09-26T02:26:14.111Z,19.90
2022-09-26T02:29:01.823Z,19.90
2022-09-26T02:31:55.631Z,19.90
2022-09-26T02:34:47.171Z,19.90
2022-09-26T02:37:36.539Z,19.80
2022-09-26T02:40:34.143Z,19.80
2022-09-26T02:43:40.818Z,19.80
2022-09-26T02:47:00.949Z,19.80
2022-09-26T02:50:19.928Z,19.80
2022-09-26T02:53:26.112Z,19.80
2022-09-26T02:56:30.100Z,19.80
2022-09-26T02:59:23.375Z,19.80
2022-09-26T03:02:16.775Z,19.80
2022-09-26T03:05:17.801Z,19.80
2022-09-26T03:08:13.009Z,19.80
2022-09-26T03:11:06.508Z,19.80
2022-09-26T03:13:55.949Z,19.80
2022-09-26T03:16:46.026Z,19.70
2022-09-26T03:19:40.880Z,19.70
2022-09-26T03:22:28.442Z,19.70
2022-09-26T03:25:22.165Z,19.70
2022-09-26T03:28:21.738Z,19.70
2022-09-26T03:31:09.399Z,19.70
2022-09-26T03:34:16.974Z,19.60
2022-09-26T03:37:05.109Z,19.60
2022-09-26T03:39:53.991Z,19.60
2022-09-26T03:42:57.261Z,19.60
2022-09-26T03:45:44.763Z,19.60
2022-09-26T03:48:39.846Z,19.60
2022-09-26T03:51:27.967Z,19.60
2022-09-26T03:54:15.527Z,19.60
2022-09-26T03:57:02.930Z,19.60
2022-09-26T03:59:51.678Z,19.60
2022-09-26T04:02:39.599Z,19.60
2022-09-26T04:05:40.261Z,19.60
2022-09-26T04:08:27.574Z,19.60
2022-09-26T04:11:19.376Z,19.60
2022-09-26T04:14:08.148Z,19.60
2022-09-26T04:16:58.459Z,19.60
2022-09-26T04:19:56.597Z,19.50
2022-09-26T04:22:43.970Z,19.50
2022-09-26T04:25:31.693Z,19.50
2022-09-26T04:28:19.065Z,19.50
2022-09-26T04:31:08.276Z,19.50
2022-09-26T04:33:57.327Z,19.50
2022-09-26T04:36:44.651Z,19.50
2022-09-26T04:39:33.171Z,19.50
2022-09-26T04:42:21.256Z,19.50
2022-09-26T04:45:10.464Z,19.50
2022-09-26T04:47:57.753Z,19.50
2022-09-26T04:50:46.373Z,19.50
2022-09-26T04:53:33.445Z,19.50
2022-09-26T04:56:29.863Z,19.50
2022-09-26T04:59:17.052Z,19.50
2022-09-26T05:02:14.843Z,19.50
2022-09-26T05:05:03.379Z,19.50
2022-09-26T05:07:52.502Z,19.50
2022-09-26T05:10:39.988Z,19.40
2022-09-26T05:13:28.925Z,19.40
2022-09-26T05:16:17.270Z,19.40
2022-09-26T05:19:05.658Z,19.40
2022-09-26T05:21:56.707Z,19.40
2022-09-26T05:25:02.951Z,19.40
2022-09-26T05:27:50.188Z,19.40
2022-09-26T05:30:37.583Z,19.30
2022-09-26T05:33:24.867Z,19.30
2022-09-26T05:36:13.868Z,19.30
2022-09-26T05:39:01.325Z,19.30
2022-09-26T05:41:49.395Z,19.30
2022-09-26T05:44:36.726Z,19.30
2022-09-26T05:47:26.489Z,19.30
2022-09-26T05:50:13.632Z,19.30
2022-09-26T05:53:02.197Z,19.30
2022-09-26T05:55:51.154Z,19.30
2022-09-26T05:58:48.175Z,19.30
2022-09-26T06:01:38.620Z,19.30
2022-09-26T06:04:37.839Z,19.30
2022-09-26T06:07:51.882Z,19.30
2022-09-26T06:11:01.484Z,19.30
2022-09-26T06:13:50.956Z,19.30
2022-09-26T06:16:38.112Z,19.30
2022-09-26T06:19:27.011Z,19.30
2022-09-26T06:22:14.035Z,19.30
2022-09-26T06:25:01.211Z,19.30
2022-09-26T06:27:48.916Z,19.30
2022-09-26T06:30:37.367Z,19.30
2022-09-26T06:33:53.450Z,19.30
2022-09-26T06:36:54.701Z,19.30
2022-09-26T06:39:41.871Z,19.30
2022-09-26T06:42:29.049Z,19.30
2022-09-26T06:45:32.247Z,19.30
2022-09-26T06:48:53.077Z,19.40
2022-09-26T06:51:44.549Z,19.40
2022-09-26T06:54:31.932Z,19.40
2022-09-26T06:57:19.110Z,19.40
2022-09-26T07:00:07.637Z,19.40
2022-09-26T07:03:26.683Z,19.40
2022-09-26T07:06:27.174Z,19.40
2022-09-26T07:09:16.244Z,19.40
2022-09-26T07:12:22.359Z,19.50
2022-09-26T07:15:13.762Z,19.50
2022-09-26T07:18:03.282Z,19.50
2022-09-26T07:21:13.318Z,19.50
2022-09-26T07:24:30.951Z,19.60
2022-09-26T07:27:19.029Z,19.60
2022-09-26T07:30:09.857Z,19.60
2022-09-26T07:33:07.942Z,19.70
2022-09-26T07:36:14.097Z,19.70
2022-09-26T07:39:02.687Z,19.70
2022-09-26T07:41:51.172Z,19.80
2022-09-26T07:45:20.387Z,19.80
2022-09-26T07:48:03.039Z,19.80
2022-09-26T07:51:17.781Z,19.90
2022-09-26T07:54:08.729Z,20.00
2022-09-26T07:57:29.870Z,20.00
2022-09-26T08:00:31.588Z,20.00
2022-09-26T08:03:35.329Z,20.10
2022-09-26T08:06:28.619Z,20.20
2022-09-26T08:09:15.943Z,20.20
2022-09-26T08:12:43.541Z,20.30
2022-09-26T08:15:46.388Z,20.40
2022-09-26T08:18:42.697Z,20.40
2022-09-26T08:21:29.933Z,20.50
2022-09-26T08:24:18.809Z,20.60
2022-09-26T08:27:24.802Z,20.60
2022-09-26T08:30:13.876Z,20.70
2022-09-26T08:33:02.165Z,20.70
2022-09-26T08:35:51.142Z,20.80
2022-09-26T08:38:54.073Z,20.90
2022-09-26T08:42:28.755Z,21.00
2022-09-26T08:46:14.443Z,21.00
2022-09-26T08:49:41.866Z,21.10
2022-09-26T08:52:34.635Z,21.20
2022-09-26T08:55:25.645Z,21.20
2022-09-26T08:58:19.724Z,21.30
2022-09-26T09:01:18.767Z,21.30
2022-09-26T09:04:39.995Z,21.40
2022-09-26T09:07:28.103Z,21.40
2022-09-26T09:10:19.800Z,21.40
2022-09-26T09:13:29.189Z,21.40
2022-09-26T09:17:10.504Z,21.40
2022-09-26T09:20:17.588Z,21.50
2022-09-26T09:23:45.095Z,21.40
2022-09-26T09:30:16.986Z,21.30
2022-09-26T09:33:28.950Z,21.30
2022-09-26T09:36:49.909Z,21.30
2022-09-26T09:40:00.045Z,21.20
2022-09-26T09:43:02.521Z,21.20
2022-09-26T09:45:52.385Z,21.20
2022-09-26T09:48:41.050Z,21.20
2022-09-26T09:51:41.377Z,21.20
2022-09-26T09:54:45.214Z,21.20
2022-09-26T09:57:57.683Z,21.20
2022-09-26T10:01:03.128Z,21.20
2022-09-26T10:04:03.468Z,21.20
2022-09-26T10:06:52.844Z,21.20
2022-09-26T10:09:45.393Z,21.30
2022-09-26T10:12:58.767Z,21.30
2022-09-26T10:16:15.785Z,21.30
2022-09-26T10:19:16.581Z,21.40
2022-09-26T10:22:04.075Z,21.40
2022-09-26T10:24:53.463Z,21.40
2022-09-26T10:27:50.137Z,21.50
2022-09-26T10:30:50.155Z,21.50
2022-09-26T10:33:46.447Z,21.50
2022-09-26T10:36:38.867Z,21.50
2022-09-26T10:39:46.479Z,21.50
2022-09-26T10:42:38.411Z,21.40
2022-09-26T10:45:29.526Z,21.40
2022-09-26T10:48:49.352Z,21.40
2022-09-26T10:52:04.591Z,21.40
2022-09-26T10:54:59.042Z,21.40
2022-09-26T10:57:50.481Z,21.40
2022-09-26T11:00:41.970Z,21.30
2022-09-26T11:03:43.198Z,21.30
2022-09-26T11:06:47.037Z,21.30
2022-09-26T11:09:50.001Z,21.30
2022-09-26T11:13:02.452Z,21.20
2022-09-26T11:16:01.296Z,21.20
2022-09-26T11:18:59.157Z,21.20
2022-09-26T11:21:53.975Z,21.20
2022-09-26T11:24:54.097Z,21.20
2022-09-26T11:27:47.991Z,21.20
2022-09-26T11:30:48.323Z,21.20
2022-09-26T11:33:45.159Z,21.20
2022-09-26T11:37:30.613Z,21.30
2022-09-26T11:40:57.289Z,21.30
2022-09-26T11:43:58.560Z,21.30
2022-09-26T11:47:38.524Z,21.30
2022-09-26T11:50:40.978Z,21.30
2022-09-26T11:54:06.783Z,21.30
2022-09-26T11:57:10.814Z,21.30
2022-09-26T12:00:24.301Z,21.30
2022-09-26T12:03:56.133Z,21.40
2022-09-26T12:06:53.574Z,21.40
2022-09-26T12:10:14.857Z,21.40
2022-09-26T12:13:20.373Z,21.40
2022-09-26T12:16:15.493Z,21.40
2022-09-26T12:19:14.098Z,21.40
2022-09-26T12:22:30.464Z,21.40
2022-09-26T12:25:36.055Z,21.40
2022-09-26T12:28:55.709Z,21.40
2022-09-26T12:32:00.796Z,21.50
2022-09-26T12:35:20.044Z,21.50
2022-09-26T12:38:46.140Z,21.50
2022-09-26T12:41:57.278Z,21.60
2022-09-26T12:45:17.319Z,21.50
2022-09-26T12:48:29.765Z,21.60
2022-09-26T12:51:28.621Z,21.60
2022-09-26T12:54:37.107Z,21.60
2022-09-26T12:57:38.528Z,21.60
2022-09-26T13:00:27.205Z,21.60
2022-09-26T13:04:00.383Z,21.60
2022-09-26T13:07:19.401Z,21.60
2022-09-26T13:10:28.030Z,21.60
2022-09-26T13:13:55.890Z,21.60
2022-09-26T13:17:06.189Z,21.50
2022-09-26T13:20:00.995Z,21.60
2022-09-26T13:22:53.970Z,21.50
2022-09-26T13:25:50.085Z,21.50
2022-09-26T13:28:55.484Z,21.50
2022-09-26T13:31:55.964Z,21.50
2022-09-26T13:34:48.447Z,21.50
2022-09-26T13:37:47.840Z,21.40
2022-09-26T13:40:42.832Z,21.40
2022-09-26T13:43:50.074Z,21.40
2022-09-26T13:46:54.940Z,21.40
2022-09-26T13:49:55.312Z,21.40
2022-09-26T13:52:52.937Z,21.40
2022-09-26T13:55:42.850Z,21.30
2022-09-26T13:58:40.898Z,21.30
2022-09-26T14:01:29.435Z,21.30
2022-09-26T14:04:21.687Z,21.30
2022-09-26T14:07:40.745Z,21.30
2022-09-26T14:10:38.584Z,21.20
2022-09-26T14:13:37.997Z,21.20
2022-09-26T14:16:38.030Z,21.20
2022-09-26T14:19:35.678Z,21.20
2022-09-26T14:22:37.891Z,21.20
2022-09-26T14:25:56.477Z,21.20
2022-09-26T14:28:52.975Z,21.20
2022-09-26T14:31:41.836Z,21.10
2022-09-26T14:34:41.896Z,21.10
2022-09-26T14:37:34.930Z,21.10
2022-09-26T14:40:32.534Z,21.10
2022-09-26T14:43:21.280Z,21.10
2022-09-26T14:46:18.742Z,21.00
2022-09-26T14:49:08.184Z,21.00
2022-09-26T14:52:07.502Z,21.00
2022-09-26T14:55:02.211Z,21.10
2022-09-26T14:57:49.906Z,21.00
2022-09-26T15:00:40.472Z,21.00
2022-09-26T15:03:28.649Z,21.00
2022-09-26T15:06:15.937Z,21.00
2022-09-26T15:09:12.428Z,21.00
2022-09-26T15:12:03.954Z,21.00
2022-09-26T15:14:55.463Z,21.00
2022-09-26T15:17:49.887Z,21.00
2022-09-26T15:20:42.136Z,21.00
2022-09-26T15:23:32.974Z,21.00
2022-09-26T15:26:25.802Z,21.00
2022-09-26T15:29:14.675Z,20.90
2022-09-26T15:32:02.411Z,21.00
2022-09-26T15:34:49.988Z,21.00
2022-09-26T15:37:38.229Z,20.90
2022-09-26T15:40:28.877Z,20.90
2022-09-26T15:43:20.697Z,21.00
2022-09-26T15:46:23.534Z,21.00
2022-09-26T15:49:15.466Z,21.00
2022-09-26T15:52:03.386Z,21.00
2022-09-26T15:54:52.553Z,21.00
2022-09-26T15:57:39.827Z,21.00
2022-09-26T16:00:33.932Z,21.00
2022-09-26T16:03:41.384Z,21.00
2022-09-26T16:06:34.314Z,21.00
2022-09-26T16:09:24.852Z,21.00
2022-09-26T16:12:22.512Z,21.00
2022-09-26T16:15:18.108Z,21.00
2022-09-26T16:18:07.024Z,21.00
2022-09-26T16:21:21.478Z,21.00
2022-09-26T16:24:30.607Z,21.00
2022-09-26T16:27:26.098Z,21.00
2022-09-26T16:30:42.835Z,21.00
2022-09-26T16:33:33.053Z,21.00
2022-09-26T16:36:24.646Z,21.00
2022-09-26T16:39:22.578Z,21.00
2022-09-26T16:42:17.839Z,20.90
2022-09-26T16:45:07.537Z,21.00
2022-09-26T16:47:54.762Z,21.00
2022-09-26T16:50:42.214Z,20.90
2022-09-26T16:53:31.089Z,20.90
2022-09-26T16:56:22.716Z,20.90
2022-09-26T16:59:18.703Z,20.90
2022-09-26T17:02:09.702Z,20.90
2022-09-26T17:04:56.911Z,20.90
2022-09-26T17:07:44.424Z,20.90
2022-09-26T17:10:37.604Z,20.90
2022-09-26T17:13:28.112Z,20.90
2022-09-26T17:16:16.187Z,20.90
2022-09-26T17:19:03.817Z,20.90
2022-09-26T17:21:51.824Z,20.90
2022-09-26T17:24:39.362Z,20.90
2022-09-26T17:27:34.155Z,20.90
2022-09-26T17:30:22.135Z,20.90
2022-09-26T17:33:11.420Z,20.90
2022-09-26T17:35:59.490Z,20.90
2022-09-26T17:38:46.672Z,20.90
2022-09-26T17:41:34.839Z,20.90
2022-09-26T17:44:24.209Z,20.90
2022-09-26T17:47:12.555Z,20.90
2022-09-26T17:50:00.589Z,20.90
2022-09-26T17:52:48.182Z,20.90
2022-09-26T17:55:35.668Z,20.90
2022-09-26T17:58:22.871Z,20.90
2022-09-26T18:01:23.383Z,20.90
2022-09-26T18:04:17.510Z,20.90
2022-09-26T18:07:10.142Z,20.90
2022-09-26T18:09:57.860Z,20.90
2022-09-26T18:12:45.678Z,20.90
2022-09-26T18:15:32.939Z,20.90
2022-09-26T18:18:24.211Z,20.90
2022-09-26T18:21:16.250Z,20.90
2022-09-26T18:24:06.891Z,20.90
2022-09-26T18:26:57.195Z,20.90
2022-09-26T18:29:47.875Z,20.90
2022-09-26T18:32:39.090Z,20.80
2022-09-26T18:35:30.026Z,20.80
2022-09-26T18:38:17.406Z,20.80
2022-09-26T18:41:07.046Z,20.80
2022-09-26T18:43:58.065Z,20.80
2022-09-26T18:46:47.131Z,20.80
2022-09-26T18:49:36.910Z,20.80
2022-09-26T18:52:25.931Z,20.80
2022-09-26T18:55:38.104Z,20.80
2022-09-26T18:58:27.268Z,20.70
2022-09-26T19:01:21.487Z,20.70
2022-09-26T19:04:14.885Z,20.70
2022-09-26T19:07:06.722Z,20.70
2022-09-26T19:09:55.673Z,20.70
2022-09-26T19:12:43.463Z,20.70
2022-09-26T19:15:31.174Z,20.70
2022-09-26T19:18:18.558Z,20.60
2022-09-26T19:21:11.657Z,20.60
2022-09-26T19:24:03.087Z,20.60
2022-09-26T19:26:56.666Z,20.60
2022-09-26T19:29:48.030Z,20.60
2022-09-26T19:32:38.806Z,20.60
2022-09-26T19:35:29.445Z,20.60
2022-09-26T19:38:22.139Z,20.60
2022-09-26T19:41:09.625Z,20.50
2022-09-26T19:43:58.510Z,20.50
2022-09-26T19:46:48.435Z,20.50
2022-09-26T19:49:35.961Z,20.50
2022-09-26T19:52:23.509Z,20.50
2022-09-26T19:55:15.771Z,20.50
2022-09-26T19:58:11.796Z,20.40
2022-09-26T20:01:05.870Z,20.40
2022-09-26T20:03:53.423Z,20.40
2022-09-26T20:06:40.847Z,20.40
2022-09-26T20:09:29.619Z,20.40
2022-09-26T20:12:17.119Z,20.40
2022-09-26T20:15:04.355Z,20.40
2022-09-26T20:17:55.173Z,20.40
2022-09-26T20:20:43.187Z,20.40
2022-09-26T20:23:31.376Z,20.40
2022-09-26T20:26:19.735Z,20.30
2022-09-26T20:29:13.004Z,20.30
2022-09-26T20:32:00.945Z,20.30
2022-09-26T20:34:49.548Z,20.30
2022-09-26T20:37:39.960Z,20.20
2022-09-26T20:40:27.465Z,20.20
2022-09-26T20:43:22.436Z,20.20
2022-09-26T20:46:11.919Z,20.20
2022-09-26T20:49:00.850Z,20.20
2022-09-26T20:51:51.214Z,20.20
2022-09-26T20:54:38.260Z,20.20
2022-09-26T20:57:26.249Z,20.20
2022-09-26T21:00:16.790Z,20.20
2022-09-26T21:03:04.287Z,20.10
2022-09-26T21:05:51.591Z,20.10
2022-09-26T21:08:40.285Z,20.10
2022-09-26T21:11:28.037Z,20.10
2022-09-26T21:14:15.355Z,20.10
2022-09-26T21:17:02.582Z,20.10
2022-09-26T21:19:51.430Z,20.00
2022-09-26T21:23:11.591Z,20.00
2022-09-26T21:26:00.389Z,20.00
2022-09-26T21:28:48.720Z,20.00
2022-09-26T21:31:36.729Z,20.00
2022-09-26T21:34:26.389Z,20.00
2022-09-26T21:37:13.845Z,20.00
2022-09-26T21:40:01.496Z,19.90
2022-09-26T21:42:54.360Z,19.90
2022-09-26T21:45:43.707Z,19.90
2022-09-26T21:48:31.021Z,19.90
2022-09-26T21:51:18.775Z,19.90
2022-09-26T21:54:12.236Z,19.90
2022-09-26T21:57:06.092Z,19.90
2022-09-26T21:59:56.088Z,19.90
2022-09-26T22:02:43.697Z,19.90
2022-09-26T22:05:31.410Z,19.90
2022-09-26T22:08:18.675Z,19.90
2022-09-26T22:11:07.563Z,19.90
2022-09-26T22:13:56.436Z,19.90
2022-09-26T22:16:45.538Z,19.80
2022-09-26T22:19:33.586Z,19.90
2022-09-26T22:22:21.679Z,19.90
2022-09-26T22:25:09.935Z,19.80
2022-09-26T22:27:57.499Z,19.80
2022-09-26T22:30:44.740Z,19.80
2022-09-26T22:33:33.528Z,19.80
2022-09-26T22:36:21.053Z,19.80
2022-09-26T22:39:08.571Z,19.80
2022-09-26T22:41:55.942Z,19.80
2022-09-26T22:44:43.578Z,19.80
2022-09-26T22:47:30.931Z,19.80
2022-09-26T22:50:19.849Z,19.80
2022-09-26T22:53:06.909Z,19.80
2022-09-26T22:55:55.896Z,19.80
2022-09-26T22:58:46.250Z,19.80
2022-09-26T23:01:33.780Z,19.80
2022-09-26T23:04:21.225Z,19.80
2022-09-26T23:07:10.132Z,19.70
2022-09-26T23:09:57.455Z,19.80
2022-09-26T23:12:45.067Z,19.70
2022-09-26T23:15:32.692Z,19.70
2022-09-26T23:18:20.444Z,19.70
2022-09-26T23:21:09.924Z,19.70
2022-09-26T23:24:00.638Z,19.70
2022-09-26T23:26:48.503Z,19.70
2022-09-26T23:29:36.740Z,19.70
2022-09-26T23:32:24.094Z,19.70
2022-09-26T23:35:11.772Z,19.70
2022-09-26T23:37:59.387Z,19.60
2022-09-26T23:40:48.844Z,19.60
2022-09-26T23:43:36.815Z,19.60
2022-09-26T23:46:24.151Z,19.60
2022-09-26T23:49:11.281Z,19.60
2022-09-26T23:51:58.768Z,19.60
2022-09-26T23:54:46.421Z,19.60
2022-09-26T23:57:36.393Z,19.60
